sensor_id;sensor_type;location;lat;lon;timestamp;P1;durP1;ratioP1;P2;durP2;ratioP2
24713;SDS011;12820;51.580;5.010;2022-12-20T00:03:25;9.98;;;4.00;;
24713;SDS011;12820;51.580;5.010;2022-12-20T00:08:27;10.25;;;4.32;;
24713;SDS011;12820;51.580;5.010;2022-12-20T00:13:30;7.07;;;3.60;;
24713;SDS011;12820;51.580;5.010;2022-12-20T00:18:33;8.65;;;3.45;;
24713;SDS011;12820;51.580;5.010;2022-12-20T00:23:36;7.97;;;4.10;;
24713;SDS011;12820;51.580;5.010;2022-12-20T00:28:39;12.75;;;3.90;;
24713;SDS011;12820;51.580;5.010;2022-12-20T00:33:44;8.15;;;3.90;;
24713;SDS011;12820;51.580;5.010;2022-12-20T00:38:48;6.95;;;3.60;;
24713;SDS011;12820;51.580;5.010;2022-12-20T00:43:55;7.78;;;3.50;;
24713;SDS011;12820;51.580;5.010;2022-12-20T00:48:58;8.00;;;3.60;;
24713;SDS011;12820;51.580;5.010;2022-12-20T00:54:01;8.73;;;4.03;;
24713;SDS011;12820;51.580;5.010;2022-12-20T00:59:03;10.13;;;4.20;;
24713;SDS011;12820;51.580;5.010;2022-12-20T01:04:05;7.90;;;4.13;;
24713;SDS011;12820;51.580;5.010;2022-12-20T01:09:09;10.50;;;4.75;;
24713;SDS011;12820;51.580;5.010;2022-12-20T01:14:12;10.93;;;5.60;;
24713;SDS011;12820;51.580;5.010;2022-12-20T01:19:16;9.55;;;5.00;;
24713;SDS011;12820;51.580;5.010;2022-12-20T01:24:19;8.30;;;4.75;;
24713;SDS011;12820;51.580;5.010;2022-12-20T01:29:21;12.05;;;5.53;;
24713;SDS011;12820;51.580;5.010;2022-12-20T01:34:23;11.43;;;5.63;;
24713;SDS011;12820;51.580;5.010;2022-12-20T01:39:25;10.85;;;5.35;;
24713;SDS011;12820;51.580;5.010;2022-12-20T01:49:30;16.25;;;6.10;;
24713;SDS011;12820;51.580;5.010;2022-12-20T02:04:49;12.05;;;5.70;;
24713;SDS011;12820;51.580;5.010;2022-12-20T02:09:51;10.90;;;5.45;;
24713;SDS011;12820;51.580;5.010;2022-12-20T02:30:40;11.93;;;5.07;;
24713;SDS011;12820;51.580;5.010;2022-12-20T02:35:46;11.45;;;5.05;;
24713;SDS011;12820;51.580;5.010;2022-12-20T02:40:48;13.30;;;5.72;;
24713;SDS011;12820;51.580;5.010;2022-12-20T02:45:57;10.48;;;5.40;;
24713;SDS011;12820;51.580;5.010;2022-12-20T02:51:01;16.27;;;5.18;;
24713;SDS011;12820;51.580;5.010;2022-12-20T02:56:08;11.00;;;5.30;;
24713;SDS011;12820;51.580;5.010;2022-12-20T03:01:16;12.55;;;5.47;;
24713;SDS011;12820;51.580;5.010;2022-12-20T03:06:24;10.55;;;5.38;;
24713;SDS011;12820;51.580;5.010;2022-12-20T03:11:27;10.63;;;5.57;;
24713;SDS011;12820;51.580;5.010;2022-12-20T03:16:30;10.73;;;5.30;;
24713;SDS011;12820;51.580;5.010;2022-12-20T03:21:32;11.77;;;5.20;;
24713;SDS011;12820;51.580;5.010;2022-12-20T03:26:34;8.73;;;4.93;;
24713;SDS011;12820;51.580;5.010;2022-12-20T03:31:37;10.70;;;4.43;;
24713;SDS011;12820;51.580;5.010;2022-12-20T03:36:39;15.15;;;5.63;;
24713;SDS011;12820;51.580;5.010;2022-12-20T03:41:41;10.13;;;5.20;;
24713;SDS011;12820;51.580;5.010;2022-12-20T03:46:45;8.05;;;4.72;;
24713;SDS011;12820;51.580;5.010;2022-12-20T03:51:48;8.68;;;4.40;;
24713;SDS011;12820;51.580;5.010;2022-12-20T03:56:50;9.55;;;4.90;;
24713;SDS011;12820;51.580;5.010;2022-12-20T04:01:52;8.02;;;4.50;;
24713;SDS011;12820;51.580;5.010;2022-12-20T04:06:55;9.50;;;4.60;;
24713;SDS011;12820;51.580;5.010;2022-12-20T04:11:57;11.55;;;4.82;;
24713;SDS011;12820;51.580;5.010;2022-12-20T04:17:01;10.65;;;4.10;;
24713;SDS011;12820;51.580;5.010;2022-12-20T04:22:05;9.43;;;4.85;;
24713;SDS011;12820;51.580;5.010;2022-12-20T04:27:23;10.02;;;4.65;;
24713;SDS011;12820;51.580;5.010;2022-12-20T04:32:28;13.55;;;5.70;;
24713;SDS011;12820;51.580;5.010;2022-12-20T04:37:30;10.13;;;4.55;;
24713;SDS011;12820;51.580;5.010;2022-12-20T04:42:33;7.32;;;4.70;;
24713;SDS011;12820;51.580;5.010;2022-12-20T04:47:36;10.30;;;4.68;;
24713;SDS011;12820;51.580;5.010;2022-12-20T04:52:39;8.57;;;4.80;;
24713;SDS011;12820;51.580;5.010;2022-12-20T04:58:01;10.77;;;4.05;;
24713;SDS011;12820;51.580;5.010;2022-12-20T05:03:11;9.67;;;4.60;;
24713;SDS011;12820;51.580;5.010;2022-12-20T05:08:14;10.40;;;4.35;;
24713;SDS011;12820;51.580;5.010;2022-12-20T05:13:17;8.82;;;4.05;;
24713;SDS011;12820;51.580;5.010;2022-12-20T05:18:21;8.30;;;3.72;;
24713;SDS011;12820;51.580;5.010;2022-12-20T05:23:30;6.78;;;3.70;;
24713;SDS011;12820;51.580;5.010;2022-12-20T05:28:56;9.52;;;4.13;;
24713;SDS011;12820;51.580;5.010;2022-12-20T05:34:00;8.32;;;3.58;;
24713;SDS011;12820;51.580;5.010;2022-12-20T05:39:06;8.00;;;3.92;;
24713;SDS011;12820;51.580;5.010;2022-12-20T05:44:12;6.53;;;3.22;;
24713;SDS011;12820;51.580;5.010;2022-12-20T05:49:18;6.05;;;3.13;;
24713;SDS011;12820;51.580;5.010;2022-12-20T05:54:20;7.75;;;3.30;;
24713;SDS011;12820;51.580;5.010;2022-12-20T05:59:30;7.93;;;3.55;;
24713;SDS011;12820;51.580;5.010;2022-12-20T06:04:34;6.88;;;3.25;;
24713;SDS011;12820;51.580;5.010;2022-12-20T06:09:42;6.75;;;2.95;;
24713;SDS011;12820;51.580;5.010;2022-12-20T06:14:48;6.25;;;3.15;;
24713;SDS011;12820;51.580;5.010;2022-12-20T06:19:51;9.50;;;3.00;;
24713;SDS011;12820;51.580;5.010;2022-12-20T06:24:53;6.68;;;3.10;;
24713;SDS011;12820;51.580;5.010;2022-12-20T06:30:00;7.18;;;3.05;;
24713;SDS011;12820;51.580;5.010;2022-12-20T06:35:15;8.93;;;3.13;;
24713;SDS011;12820;51.580;5.010;2022-12-20T06:40:17;6.90;;;3.03;;
24713;SDS011;12820;51.580;5.010;2022-12-20T06:45:20;7.07;;;3.15;;
24713;SDS011;12820;51.580;5.010;2022-12-20T06:50:22;9.80;;;3.10;;
24713;SDS011;12820;51.580;5.010;2022-12-20T06:55:25;8.02;;;3.10;;
24713;SDS011;12820;51.580;5.010;2022-12-20T07:00:27;8.13;;;2.65;;
24713;SDS011;12820;51.580;5.010;2022-12-20T07:05:29;5.90;;;2.63;;
24713;SDS011;12820;51.580;5.010;2022-12-20T07:10:35;7.55;;;2.88;;
24713;SDS011;12820;51.580;5.010;2022-12-20T07:15:38;6.90;;;2.50;;
24713;SDS011;12820;51.580;5.010;2022-12-20T07:20:40;7.55;;;2.78;;
24713;SDS011;12820;51.580;5.010;2022-12-20T07:25:42;4.75;;;2.63;;
24713;SDS011;12820;51.580;5.010;2022-12-20T07:30:45;7.00;;;2.88;;
24713;SDS011;12820;51.580;5.010;2022-12-20T07:35:47;6.07;;;2.67;;
24713;SDS011;12820;51.580;5.010;2022-12-20T07:40:55;6.82;;;3.05;;
24713;SDS011;12820;51.580;5.010;2022-12-20T07:45:58;8.48;;;2.80;;
24713;SDS011;12820;51.580;5.010;2022-12-20T07:51:02;4.72;;;2.65;;
24713;SDS011;12820;51.580;5.010;2022-12-20T07:56:08;6.68;;;2.80;;
24713;SDS011;12820;51.580;5.010;2022-12-20T08:01:12;7.55;;;2.88;;
24713;SDS011;12820;51.580;5.010;2022-12-20T08:06:15;6.30;;;2.70;;
24713;SDS011;12820;51.580;5.010;2022-12-20T08:11:18;9.13;;;3.22;;
24713;SDS011;12820;51.580;5.010;2022-12-20T08:16:21;9.45;;;3.80;;
24713;SDS011;12820;51.580;5.010;2022-12-20T08:21:24;6.90;;;3.33;;
24713;SDS011;12820;51.580;5.010;2022-12-20T08:26:26;8.45;;;3.47;;
24713;SDS011;12820;51.580;5.010;2022-12-20T08:31:28;7.38;;;3.92;;
24713;SDS011;12820;51.580;5.010;2022-12-20T08:36:31;9.45;;;4.40;;
24713;SDS011;12820;51.580;5.010;2022-12-20T08:41:33;9.82;;;3.55;;
24713;SDS011;12820;51.580;5.010;2022-12-20T08:46:37;9.80;;;4.45;;
24713;SDS011;12820;51.580;5.010;2022-12-20T08:51:40;13.82;;;4.78;;
24713;SDS011;12820;51.580;5.010;2022-12-20T08:56:42;7.43;;;3.97;;
24713;SDS011;12820;51.580;5.010;2022-12-20T09:01:44;11.23;;;4.10;;
24713;SDS011;12820;51.580;5.010;2022-12-20T09:06:47;9.30;;;4.07;;
24713;SDS011;12820;51.580;5.010;2022-12-20T09:11:49;8.65;;;3.90;;
24713;SDS011;12820;51.580;5.010;2022-12-20T09:16:51;9.27;;;4.53;;
24713;SDS011;12820;51.580;5.010;2022-12-20T09:21:53;10.35;;;3.90;;
24713;SDS011;12820;51.580;5.010;2022-12-20T09:26:56;11.85;;;4.32;;
24713;SDS011;12820;51.580;5.010;2022-12-20T09:31:58;12.63;;;4.00;;
24713;SDS011;12820;51.580;5.010;2022-12-20T09:37:00;8.50;;;3.80;;
24713;SDS011;12820;51.580;5.010;2022-12-20T09:42:05;9.48;;;4.47;;
24713;SDS011;12820;51.580;5.010;2022-12-20T09:47:13;7.68;;;3.75;;
24713;SDS011;12820;51.580;5.010;2022-12-20T10:02:49;13.38;;;4.25;;
24713;SDS011;12820;51.580;5.010;2022-12-20T10:08:22;8.37;;;4.13;;
24713;SDS011;12820;51.580;5.010;2022-12-20T10:13:45;12.48;;;4.55;;
24713;SDS011;12820;51.580;5.010;2022-12-20T10:18:56;9.35;;;4.47;;
24713;SDS011;12820;51.580;5.010;2022-12-20T10:24:19;11.50;;;4.90;;
24713;SDS011;12820;51.580;5.010;2022-12-20T10:29:34;9.48;;;4.60;;
24713;SDS011;12820;51.580;5.010;2022-12-20T10:34:37;12.05;;;5.38;;
24713;SDS011;12820;51.580;5.010;2022-12-20T10:39:48;10.32;;;4.85;;
24713;SDS011;12820;51.580;5.010;2022-12-20T10:44:52;8.32;;;4.88;;
24713;SDS011;12820;51.580;5.010;2022-12-20T11:00:45;9.45;;;4.95;;
24713;SDS011;12820;51.580;5.010;2022-12-20T11:11:14;14.15;;;5.60;;
24713;SDS011;12820;51.580;5.010;2022-12-20T11:16:23;12.60;;;5.85;;
24713;SDS011;12820;51.580;5.010;2022-12-20T11:27:13;11.48;;;5.60;;
24713;SDS011;12820;51.580;5.010;2022-12-20T11:53:49;11.27;;;5.78;;
24713;SDS011;12820;51.580;5.010;2022-12-20T12:04:17;13.63;;;6.55;;
24713;SDS011;12820;51.580;5.010;2022-12-20T12:09:39;16.65;;;6.53;;
24713;SDS011;12820;51.580;5.010;2022-12-20T12:20:22;12.13;;;6.47;;
24713;SDS011;12820;51.580;5.010;2022-12-20T12:25:32;11.07;;;6.43;;
24713;SDS011;12820;51.580;5.010;2022-12-20T12:30:35;11.20;;;6.55;;
24713;SDS011;12820;51.580;5.010;2022-12-20T12:51:18;14.65;;;7.75;;
24713;SDS011;12820;51.580;5.010;2022-12-20T13:01:46;13.77;;;8.43;;
24713;SDS011;12820;51.580;5.010;2022-12-20T13:07:24;14.07;;;9.00;;
24713;SDS011;12820;51.580;5.010;2022-12-20T13:17:44;16.08;;;9.15;;
24713;SDS011;12820;51.580;5.010;2022-12-20T13:23:04;17.83;;;9.00;;
24713;SDS011;12820;51.580;5.010;2022-12-20T13:43:46;15.20;;;8.45;;
24713;SDS011;12820;51.580;5.010;2022-12-20T13:48:51;15.90;;;9.30;;
24713;SDS011;12820;51.580;5.010;2022-12-20T13:59:05;13.93;;;8.77;;
24713;SDS011;12820;51.580;5.010;2022-12-20T14:04:16;12.23;;;7.22;;
24713;SDS011;12820;51.580;5.010;2022-12-20T14:09:33;14.15;;;7.03;;
24713;SDS011;12820;51.580;5.010;2022-12-20T14:14:37;14.75;;;7.38;;
24713;SDS011;12820;51.580;5.010;2022-12-20T14:19:44;13.07;;;8.60;;
24713;SDS011;12820;51.580;5.010;2022-12-20T14:24:46;14.02;;;9.13;;
24713;SDS011;12820;51.580;5.010;2022-12-20T14:29:49;16.23;;;9.30;;
24713;SDS011;12820;51.580;5.010;2022-12-20T14:34:52;15.48;;;8.98;;
24713;SDS011;12820;51.580;5.010;2022-12-20T14:40:01;14.18;;;8.77;;
24713;SDS011;12820;51.580;5.010;2022-12-20T14:45:17;12.10;;;8.20;;
24713;SDS011;12820;51.580;5.010;2022-12-20T14:50:29;15.48;;;10.13;;
24713;SDS011;12820;51.580;5.010;2022-12-20T14:55:37;15.70;;;10.40;;
24713;SDS011;12820;51.580;5.010;2022-12-20T15:00:53;16.35;;;9.82;;
24713;SDS011;12820;51.580;5.010;2022-12-20T15:06:31;18.05;;;9.95;;
24713;SDS011;12820;51.580;5.010;2022-12-20T15:11:37;14.18;;;9.50;;
24713;SDS011;12820;51.580;5.010;2022-12-20T15:16:46;15.05;;;9.13;;
24713;SDS011;12820;51.580;5.010;2022-12-20T15:21:49;17.15;;;9.73;;
24713;SDS011;12820;51.580;5.010;2022-12-20T15:26:52;17.60;;;10.32;;
24713;SDS011;12820;51.580;5.010;2022-12-20T15:31:58;17.40;;;10.23;;
24713;SDS011;12820;51.580;5.010;2022-12-20T15:37:09;18.73;;;11.48;;
24713;SDS011;12820;51.580;5.010;2022-12-20T15:42:19;21.10;;;12.07;;
24713;SDS011;12820;51.580;5.010;2022-12-20T15:47:23;18.40;;;12.10;;
24713;SDS011;12820;51.580;5.010;2022-12-20T15:52:26;22.48;;;13.73;;
24713;SDS011;12820;51.580;5.010;2022-12-20T15:57:28;22.45;;;13.73;;
24713;SDS011;12820;51.580;5.010;2022-12-20T16:02:31;23.88;;;13.65;;
24713;SDS011;12820;51.580;5.010;2022-12-20T16:07:34;23.55;;;13.60;;
24713;SDS011;12820;51.580;5.010;2022-12-20T16:12:36;23.67;;;14.50;;
24713;SDS011;12820;51.580;5.010;2022-12-20T16:17:39;29.23;;;16.08;;
24713;SDS011;12820;51.580;5.010;2022-12-20T16:22:41;26.67;;;16.92;;
24713;SDS011;12820;51.580;5.010;2022-12-20T16:27:43;30.02;;;17.58;;
24713;SDS011;12820;51.580;5.010;2022-12-20T16:32:46;32.17;;;18.73;;
24713;SDS011;12820;51.580;5.010;2022-12-20T16:37:48;32.40;;;19.17;;
24713;SDS011;12820;51.580;5.010;2022-12-20T16:42:50;29.92;;;17.70;;
24713;SDS011;12820;51.580;5.010;2022-12-20T16:47:52;33.22;;;18.45;;
24713;SDS011;12820;51.580;5.010;2022-12-20T16:52:55;29.73;;;18.88;;
24713;SDS011;12820;51.580;5.010;2022-12-20T16:57:57;36.38;;;19.83;;
24713;SDS011;12820;51.580;5.010;2022-12-20T17:03:00;29.63;;;19.05;;
24713;SDS011;12820;51.580;5.010;2022-12-20T17:08:03;47.78;;;25.35;;
24713;SDS011;12820;51.580;5.010;2022-12-20T17:13:05;34.80;;;20.00;;
24713;SDS011;12820;51.580;5.010;2022-12-20T17:18:08;34.13;;;19.00;;
24713;SDS011;12820;51.580;5.010;2022-12-20T17:23:11;33.30;;;18.90;;
24713;SDS011;12820;51.580;5.010;2022-12-20T17:28:16;34.80;;;21.00;;
24713;SDS011;12820;51.580;5.010;2022-12-20T17:33:18;38.70;;;21.23;;
24713;SDS011;12820;51.580;5.010;2022-12-20T17:38:20;36.75;;;20.25;;
24713;SDS011;12820;51.580;5.010;2022-12-20T17:43:23;36.22;;;21.60;;
24713;SDS011;12820;51.580;5.010;2022-12-20T17:48:25;38.60;;;20.70;;
24713;SDS011;12820;51.580;5.010;2022-12-20T17:53:34;35.83;;;20.58;;
24713;SDS011;12820;51.580;5.010;2022-12-20T17:58:37;39.30;;;20.55;;
24713;SDS011;12820;51.580;5.010;2022-12-20T18:03:39;37.47;;;19.65;;
24713;SDS011;12820;51.580;5.010;2022-12-20T18:09:03;37.78;;;20.17;;
24713;SDS011;12820;51.580;5.010;2022-12-20T18:14:09;39.30;;;20.77;;
24713;SDS011;12820;51.580;5.010;2022-12-20T18:19:15;40.97;;;21.13;;
24713;SDS011;12820;51.580;5.010;2022-12-20T18:24:18;38.83;;;19.80;;
24713;SDS011;12820;51.580;5.010;2022-12-20T18:29:22;36.13;;;20.08;;
24713;SDS011;12820;51.580;5.010;2022-12-20T18:34:24;49.38;;;23.45;;
24713;SDS011;12820;51.580;5.010;2022-12-20T18:39:26;43.17;;;23.48;;
24713;SDS011;12820;51.580;5.010;2022-12-20T18:44:29;48.30;;;22.48;;
24713;SDS011;12820;51.580;5.010;2022-12-20T18:49:36;50.85;;;22.98;;
24713;SDS011;12820;51.580;5.010;2022-12-20T18:54:38;43.63;;;22.83;;
24713;SDS011;12820;51.580;5.010;2022-12-20T18:59:40;45.47;;;22.45;;
24713;SDS011;12820;51.580;5.010;2022-12-20T19:04:42;45.92;;;22.27;;
24713;SDS011;12820;51.580;5.010;2022-12-20T19:09:45;42.55;;;22.92;;
24713;SDS011;12820;51.580;5.010;2022-12-20T19:14:47;43.88;;;22.80;;
24713;SDS011;12820;51.580;5.010;2022-12-20T19:19:49;49.00;;;23.38;;
24713;SDS011;12820;51.580;5.010;2022-12-20T19:24:51;48.75;;;23.98;;
24713;SDS011;12820;51.580;5.010;2022-12-20T19:29:54;47.13;;;23.35;;
24713;SDS011;12820;51.580;5.010;2022-12-20T19:34:56;54.92;;;25.40;;
24713;SDS011;12820;51.580;5.010;2022-12-20T19:39:58;49.50;;;23.48;;
24713;SDS011;12820;51.580;5.010;2022-12-20T19:45:00;47.83;;;24.38;;
24713;SDS011;12820;51.580;5.010;2022-12-20T19:50:02;43.78;;;22.65;;
24713;SDS011;12820;51.580;5.010;2022-12-20T19:55:06;48.55;;;23.45;;
24713;SDS011;12820;51.580;5.010;2022-12-20T20:00:09;45.83;;;23.17;;
24713;SDS011;12820;51.580;5.010;2022-12-20T20:05:14;52.10;;;24.75;;
24713;SDS011;12820;51.580;5.010;2022-12-20T20:10:17;45.15;;;23.98;;
24713;SDS011;12820;51.580;5.010;2022-12-20T20:15:19;52.00;;;23.27;;
24713;SDS011;12820;51.580;5.010;2022-12-20T20:20:21;47.13;;;23.10;;
24713;SDS011;12820;51.580;5.010;2022-12-20T20:25:23;52.70;;;24.85;;
24713;SDS011;12820;51.580;5.010;2022-12-20T20:30:25;53.55;;;24.50;;
24713;SDS011;12820;51.580;5.010;2022-12-20T20:35:27;49.65;;;23.63;;
24713;SDS011;12820;51.580;5.010;2022-12-20T20:40:29;54.45;;;25.10;;
24713;SDS011;12820;51.580;5.010;2022-12-20T20:45:32;50.30;;;25.08;;
24713;SDS011;12820;51.580;5.010;2022-12-20T20:50:34;59.33;;;26.80;;
24713;SDS011;12820;51.580;5.010;2022-12-20T20:55:36;54.97;;;25.67;;
24713;SDS011;12820;51.580;5.010;2022-12-20T21:00:38;47.65;;;21.83;;
24713;SDS011;12820;51.580;5.010;2022-12-20T21:05:40;43.13;;;18.35;;
24713;SDS011;12820;51.580;5.010;2022-12-20T21:11:05;33.85;;;16.10;;
24713;SDS011;12820;51.580;5.010;2022-12-20T21:16:08;40.45;;;16.75;;
24713;SDS011;12820;51.580;5.010;2022-12-20T21:21:13;42.67;;;16.80;;
24713;SDS011;12820;51.580;5.010;2022-12-20T21:26:16;37.67;;;16.88;;
24713;SDS011;12820;51.580;5.010;2022-12-20T21:31:19;39.53;;;18.55;;
24713;SDS011;12820;51.580;5.010;2022-12-20T21:36:21;44.15;;;18.85;;
24713;SDS011;12820;51.580;5.010;2022-12-20T21:41:25;40.50;;;19.20;;
24713;SDS011;12820;51.580;5.010;2022-12-20T21:46:29;49.05;;;21.13;;
24713;SDS011;12820;51.580;5.010;2022-12-20T21:51:32;48.75;;;21.75;;
24713;SDS011;12820;51.580;5.010;2022-12-20T21:56:36;54.17;;;23.75;;
24713;SDS011;12820;51.580;5.010;2022-12-20T22:01:38;54.40;;;24.45;;
24713;SDS011;12820;51.580;5.010;2022-12-20T22:06:41;61.75;;;25.35;;
24713;SDS011;12820;51.580;5.010;2022-12-20T22:11:45;63.55;;;27.10;;
24713;SDS011;12820;51.580;5.010;2022-12-20T22:16:48;70.57;;;27.63;;
24713;SDS011;12820;51.580;5.010;2022-12-20T22:21:51;72.43;;;29.23;;
24713;SDS011;12820;51.580;5.010;2022-12-20T22:26:59;78.38;;;29.30;;
24713;SDS011;12820;51.580;5.010;2022-12-20T22:32:04;75.53;;;29.67;;
24713;SDS011;12820;51.580;5.010;2022-12-20T22:37:07;74.15;;;29.90;;
24713;SDS011;12820;51.580;5.010;2022-12-20T22:42:09;78.40;;;31.75;;
24713;SDS011;12820;51.580;5.010;2022-12-20T22:47:11;88.63;;;31.88;;
24713;SDS011;12820;51.580;5.010;2022-12-20T22:52:13;89.80;;;32.75;;
24713;SDS011;12820;51.580;5.010;2022-12-20T22:57:15;87.60;;;32.47;;
24713;SDS011;12820;51.580;5.010;2022-12-20T23:02:17;103.50;;;32.90;;
24713;SDS011;12820;51.580;5.010;2022-12-20T23:07:20;95.35;;;33.53;;
24713;SDS011;12820;51.580;5.010;2022-12-20T23:12:23;96.15;;;33.42;;
24713;SDS011;12820;51.580;5.010;2022-12-20T23:17:43;105.85;;;33.30;;
24713;SDS011;12820;51.580;5.010;2022-12-20T23:22:45;106.07;;;34.55;;
24713;SDS011;12820;51.580;5.010;2022-12-20T23:27:48;115.95;;;34.15;;
24713;SDS011;12820;51.580;5.010;2022-12-20T23:32:50;101.57;;;32.78;;
24713;SDS011;12820;51.580;5.010;2022-12-20T23:37:54;102.38;;;33.53;;
24713;SDS011;12820;51.580;5.010;2022-12-20T23:42:57;111.90;;;33.28;;
24713;SDS011;12820;51.580;5.010;2022-12-20T23:47:59;106.93;;;33.92;;
24713;SDS011;12820;51.580;5.010;2022-12-20T23:53:01;107.15;;;34.60;;
24713;SDS011;12820;51.580;5.010;2022-12-20T23:58:03;108.43;;;34.38;;
